首页
METAR-TAF:

METAR-TAF

机场 :

庫拉索國際機場

库拉索, 荷属安的列斯

纬度: 12-12N, 经度: 068-58W, 海拔: 9米

当前天气观测

该预报发布于18分钟前的22:00 UTC
风速8节,风向
温度 28°C
湿度 89%
气压 1010 hPa
能见度10公里或以上
少量云层高于1900英尺

METAR: TNCC 252200Z 09008KT 9999 FEW019 28/26 Q1010 NOSIG

时间: 18:18 (22:18 UTC)

预报

该预报发布于17小时和18分钟前的05:00 UTC
预报有效从25日的 06点(UTC)到 26日的 06点(UTC)
风速11节,风向东转东南
能见度10公里或以上
散云层高于1800英尺
短暂存在
从 25日的 09点(UTC)到 25日的 15点(UTC)
多云层高于1500英尺

TAF: TNCC 250500Z 2506/2606 11011KT 9999 SCT018 TEMPO 2509/2515 BKN015

超过4000个机场的气象观测和天气预报(METAR&TAF报告)。

可查询的气象台以黄色和红色小点在地图上表示。

将鼠标移到小点上方,可查看气象台名称。

然后点击查看天气观测和预报。

如需切换地图:点击带黑十字的绿色按钮放大地图;点击带横线的绿色按钮缩小地图;或者点击绿色箭头查看邻近地区的地图。


METAR-TAF: